createdAt,value
2023-04-18T00:00:51.882Z,12.15
2023-04-18T00:03:53.420Z,13.45
2023-04-18T00:06:55.010Z,12.95
2023-04-18T00:09:56.486Z,11.52
2023-04-18T00:12:57.874Z,12.23
2023-04-18T00:15:59.415Z,13.27
2023-04-18T00:19:00.827Z,14.68
2023-04-18T00:22:02.291Z,12.60
2023-04-18T00:25:03.927Z,15.80
2023-04-18T00:28:05.485Z,14.98
2023-04-18T00:31:07.850Z,14.77
2023-04-18T00:34:09.343Z,15.90
2023-04-18T00:37:10.757Z,15.88
2023-04-18T00:40:12.276Z,16.83
2023-04-18T00:43:14.308Z,16.20
2023-04-18T00:46:15.824Z,17.55
2023-04-18T00:49:17.276Z,17.67
2023-04-18T00:52:19.334Z,17.15
2023-04-18T00:55:21.637Z,16.00
2023-04-18T00:58:24.145Z,16.90
2023-04-18T01:01:26.149Z,18.35
2023-04-18T01:04:27.829Z,17.65
2023-04-18T01:07:35.635Z,17.88
2023-04-18T01:10:37.274Z,17.55
2023-04-18T01:13:38.710Z,17.38
2023-04-18T01:16:40.175Z,18.55
2023-04-18T01:19:41.683Z,16.52
2023-04-18T01:22:43.089Z,17.10
2023-04-18T01:25:45.370Z,16.67
2023-04-18T01:28:46.802Z,16.50
2023-04-18T01:31:48.351Z,16.70
2023-04-18T01:34:50.314Z,16.52
2023-04-18T01:37:51.791Z,16.77
2023-04-18T01:40:53.211Z,16.50
2023-04-18T01:43:56.673Z,16.85
2023-04-18T01:46:58.242Z,17.10
2023-04-18T01:49:59.790Z,16.58
2023-04-18T01:53:03.352Z,16.25
2023-04-18T01:56:05.116Z,16.48
2023-04-18T01:59:06.588Z,15.52
2023-04-18T02:02:08.153Z,15.95
2023-04-18T02:05:10.402Z,16.75
2023-04-18T02:08:14.114Z,16.35
2023-04-18T02:11:15.588Z,15.95
2023-04-18T02:14:17.017Z,15.55
2023-04-18T02:17:22.895Z,15.02
2023-04-18T02:20:24.380Z,15.05
2023-04-18T02:23:25.860Z,15.27
2023-04-18T02:26:30.174Z,14.88
2023-04-18T02:29:32.417Z,15.45
2023-04-18T02:32:33.993Z,15.93
2023-04-18T02:35:37.352Z,15.75
2023-04-18T02:38:38.812Z,16.45
2023-04-18T02:41:40.240Z,17.08
2023-04-18T02:44:42.016Z,15.55
2023-04-18T02:47:54.577Z,16.05
2023-04-18T02:51:04.359Z,17.10
2023-04-18T02:54:07.940Z,16.80
2023-04-18T02:57:23.993Z,15.32
2023-04-18T03:00:34.262Z,14.90
2023-04-18T03:03:47.730Z,15.40
2023-04-18T03:07:02.050Z,16.15
2023-04-18T03:10:07.334Z,15.32
2023-04-18T03:13:11.267Z,15.07
2023-04-18T03:16:13.719Z,14.73
2023-04-18T03:22:18.602Z,13.80
2023-04-18T03:25:31.189Z,14.23
2023-04-18T03:28:33.826Z,14.95
2023-04-18T03:31:36.077Z,14.13
2023-04-18T03:34:37.516Z,14.80
2023-04-18T03:37:41.637Z,14.43
2023-04-18T03:40:44.972Z,15.55
2023-04-18T03:43:54.058Z,15.77
2023-04-18T03:46:55.560Z,15.93
2023-04-18T03:49:58.481Z,15.55
2023-04-18T03:53:01.360Z,15.75
2023-04-18T03:56:07.014Z,15.70
2023-04-18T03:59:34.338Z,15.32
2023-04-18T04:02:36.043Z,15.70
2023-04-18T04:05:37.626Z,15.18
2023-04-18T04:08:39.494Z,15.27
2023-04-18T04:11:43.383Z,15.75
2023-04-18T04:14:47.629Z,14.98
2023-04-18T04:17:50.679Z,16.08
2023-04-18T04:20:52.869Z,15.88
2023-04-18T04:24:07.170Z,16.13
2023-04-18T04:27:15.716Z,15.25
2023-04-18T04:30:17.482Z,15.90
2023-04-18T04:33:20.972Z,14.45
2023-04-18T04:36:23.662Z,15.40
2023-04-18T04:39:27.180Z,15.20
2023-04-18T04:42:41.269Z,15.27
2023-04-18T04:45:50.052Z,16.67
2023-04-18T04:48:56.957Z,15.20
2023-04-18T04:52:01.931Z,14.07
2023-04-18T04:58:05.255Z,14.50
2023-04-18T05:01:26.952Z,15.52
2023-04-18T05:04:29.043Z,14.75
2023-04-18T05:07:30.633Z,14.20
2023-04-18T05:10:32.107Z,15.63
2023-04-18T05:13:33.495Z,15.38
2023-04-18T05:16:34.986Z,14.65
2023-04-18T05:19:36.418Z,13.93
2023-04-18T05:22:37.863Z,13.77
2023-04-18T05:25:39.490Z,14.05
2023-04-18T05:28:41.000Z,13.55
2023-04-18T05:31:42.452Z,13.50
2023-04-18T05:34:43.975Z,13.20
2023-04-18T05:37:45.397Z,14.35
2023-04-18T05:40:46.827Z,12.55
2023-04-18T05:44:01.746Z,13.80
2023-04-18T05:47:08.955Z,12.77
2023-04-18T05:50:10.553Z,11.98
2023-04-18T05:53:12.048Z,12.07
2023-04-18T05:56:13.466Z,10.55
2023-04-18T05:59:14.929Z,12.07
2023-04-18T06:02:16.462Z,9.73
2023-04-18T06:05:18.307Z,11.13
2023-04-18T06:08:19.983Z,10.40
2023-04-18T06:11:21.489Z,9.77
2023-04-18T06:14:23.000Z,10.45
2023-04-18T06:17:24.613Z,9.73
2023-04-18T06:20:26.016Z,10.73
2023-04-18T06:23:27.459Z,11.27
2023-04-18T06:26:28.880Z,9.27
2023-04-18T06:29:30.539Z,10.10
2023-04-18T06:32:32.013Z,9.20
2023-04-18T06:35:33.493Z,8.60
2023-04-18T06:38:34.941Z,8.32
2023-04-18T06:41:36.308Z,9.10
2023-04-18T06:44:37.694Z,9.10
2023-04-18T06:47:40.142Z,9.82
2023-04-18T06:50:41.610Z,9.13
2023-04-18T06:53:42.991Z,8.25
2023-04-18T06:56:44.396Z,9.20
2023-04-18T06:59:45.792Z,9.73
2023-04-18T07:02:47.873Z,8.70
2023-04-18T07:05:49.597Z,9.48
2023-04-18T07:08:52.730Z,8.27
2023-04-18T07:11:55.364Z,9.00
2023-04-18T07:14:56.842Z,9.20
2023-04-18T07:17:58.286Z,8.50
2023-04-18T07:20:59.718Z,8.00
2023-04-18T07:24:01.097Z,8.50
2023-04-18T07:27:02.936Z,9.02
2023-04-18T07:30:04.933Z,8.18
2023-04-18T07:33:06.429Z,8.10
2023-04-18T07:36:08.129Z,7.70
2023-04-18T07:39:10.890Z,7.50
2023-04-18T07:42:12.321Z,7.28
2023-04-18T07:45:13.694Z,7.55
2023-04-18T07:48:15.174Z,7.82
2023-04-18T07:51:19.656Z,7.47
2023-04-18T07:54:21.100Z,8.52
2023-04-18T07:57:22.534Z,7.43
2023-04-18T08:00:24.401Z,8.05
2023-04-18T08:03:25.884Z,7.32
2023-04-18T08:06:28.441Z,7.82
2023-04-18T08:09:29.860Z,7.87
2023-04-18T08:12:31.382Z,7.32
2023-04-18T08:15:32.985Z,8.20
2023-04-18T08:18:35.727Z,7.95
2023-04-18T08:21:37.139Z,7.23
2023-04-18T08:24:39.221Z,6.78
2023-04-18T08:27:40.664Z,7.78
2023-04-18T08:30:42.547Z,7.15
2023-04-18T08:33:44.009Z,7.00
2023-04-18T08:36:45.381Z,6.75
2023-04-18T08:39:46.804Z,7.03
2023-04-18T08:42:49.344Z,6.95
2023-04-18T08:45:50.851Z,7.40
2023-04-18T08:48:52.359Z,7.13
2023-04-18T08:51:53.788Z,7.35
2023-04-18T08:54:55.311Z,7.38
2023-04-18T08:57:56.759Z,7.78
2023-04-18T09:00:58.282Z,7.72
2023-04-18T09:03:59.729Z,7.90
2023-04-18T09:07:02.725Z,8.27
2023-04-18T09:10:04.460Z,8.70
2023-04-18T09:13:05.907Z,9.27
2023-04-18T09:16:07.314Z,9.15
2023-04-18T09:19:14.614Z,9.43
2023-04-18T09:22:17.181Z,9.95
2023-04-18T09:25:28.644Z,9.55
2023-04-18T09:28:33.756Z,9.57
2023-04-18T09:31:35.316Z,8.52
2023-04-18T09:34:41.746Z,8.60
2023-04-18T09:37:50.251Z,7.88
2023-04-18T09:41:07.962Z,8.80
2023-04-18T09:44:14.439Z,9.50
2023-04-18T09:47:16.589Z,9.27
2023-04-18T09:50:18.567Z,9.32
2023-04-18T09:53:21.081Z,9.25
2023-04-18T09:56:28.189Z,8.63
2023-04-18T09:59:32.445Z,8.68
2023-04-18T10:02:44.703Z,8.20
2023-04-18T10:05:47.604Z,8.13
2023-04-18T10:08:51.998Z,6.85
2023-04-18T10:11:54.563Z,6.72
2023-04-18T10:14:56.270Z,6.23
2023-04-18T10:18:05.071Z,6.88
2023-04-18T10:21:09.035Z,7.07
2023-04-18T10:24:45.410Z,7.40
2023-04-18T10:27:57.937Z,6.70
2023-04-18T10:31:03.650Z,7.53
2023-04-18T10:34:07.172Z,7.47
2023-04-18T10:37:08.650Z,7.55
2023-04-18T10:40:10.326Z,6.70
2023-04-18T10:43:11.732Z,6.97
2023-04-18T10:46:27.776Z,7.43
2023-04-18T10:49:32.612Z,6.10
2023-04-18T10:52:34.529Z,6.68
2023-04-18T10:55:36.210Z,6.75
2023-04-18T10:58:40.953Z,7.93
2023-04-18T11:01:46.237Z,7.65
2023-04-18T11:04:56.201Z,8.07
2023-04-18T11:07:57.671Z,7.47
2023-04-18T11:11:00.140Z,7.93
2023-04-18T11:17:23.243Z,8.13
2023-04-18T11:20:24.904Z,8.65
2023-04-18T11:23:27.148Z,8.75
2023-04-18T11:26:28.640Z,7.90
2023-04-18T11:29:30.269Z,8.40
2023-04-18T11:32:34.385Z,8.25
2023-04-18T11:35:44.561Z,9.02
2023-04-18T11:38:46.044Z,8.25
2023-04-18T11:41:50.010Z,8.25
2023-04-18T11:44:51.446Z,8.40
2023-04-18T11:47:56.451Z,8.45
2023-04-18T11:50:57.874Z,8.60
2023-04-18T11:53:59.498Z,8.10
2023-04-18T11:57:00.929Z,6.72
2023-04-18T12:00:02.509Z,7.53
2023-04-18T12:03:17.357Z,7.40
2023-04-18T12:06:19.031Z,8.10
2023-04-18T12:09:22.299Z,7.57
2023-04-18T12:12:23.792Z,7.22
2023-04-18T12:15:29.585Z,6.93
2023-04-18T12:18:30.962Z,6.53
2023-04-18T12:21:32.389Z,5.80
2023-04-18T12:24:33.824Z,5.82
2023-04-18T12:28:01.367Z,5.20
2023-04-18T12:31:03.114Z,5.07
2023-04-18T12:34:04.592Z,5.95
2023-04-18T12:37:06.060Z,5.25
2023-04-18T12:40:07.964Z,4.65
2023-04-18T12:43:09.574Z,4.68
2023-04-18T12:46:11.319Z,4.55
2023-04-18T12:49:12.774Z,4.90
2023-04-18T12:52:14.168Z,3.97
2023-04-18T12:55:15.624Z,4.35
2023-04-18T12:58:17.728Z,5.30
2023-04-18T13:01:19.219Z,5.82
2023-04-18T13:04:21.171Z,5.40
2023-04-18T13:07:22.835Z,4.63
2023-04-18T13:10:25.677Z,5.05
2023-04-18T13:13:27.104Z,4.38
2023-04-18T13:16:28.577Z,4.30
2023-04-18T13:19:30.164Z,4.78
2023-04-18T13:22:31.569Z,3.88
2023-04-18T13:25:33.041Z,4.03
2023-04-18T13:28:34.414Z,4.03
2023-04-18T13:31:35.810Z,4.82
2023-04-18T13:34:41.151Z,3.50
2023-04-18T13:37:42.886Z,4.05
2023-04-18T13:40:44.308Z,4.32
2023-04-18T13:43:45.689Z,3.70
2023-04-18T13:46:47.102Z,3.60
2023-04-18T13:49:48.482Z,4.25
2023-04-18T13:52:49.915Z,3.78
2023-04-18T13:55:51.346Z,3.95
2023-04-18T13:58:52.742Z,3.50
2023-04-18T14:01:54.913Z,4.00
2023-04-18T14:04:56.544Z,3.40
2023-04-18T14:07:58.346Z,3.30
2023-04-18T14:10:59.746Z,3.03
2023-04-18T14:14:02.210Z,3.10
2023-04-18T14:17:03.652Z,2.87
2023-04-18T14:20:05.839Z,2.88
2023-04-18T14:23:07.239Z,7.20
2023-04-18T14:26:08.624Z,3.47
2023-04-18T14:29:10.075Z,3.00
2023-04-18T14:32:11.670Z,3.47
2023-04-18T14:35:13.061Z,3.22
2023-04-18T14:38:14.503Z,2.58
2023-04-18T14:41:16.367Z,2.40
2023-04-18T14:44:17.738Z,2.47
2023-04-18T14:47:19.210Z,2.85
2023-04-18T14:50:20.770Z,3.00
2023-04-18T14:53:22.204Z,2.92
2023-04-18T14:56:23.840Z,2.70
2023-04-18T14:59:28.074Z,2.67
2023-04-18T15:02:29.728Z,2.63
2023-04-18T15:05:31.345Z,2.70
2023-04-18T15:08:33.029Z,3.13
2023-04-18T15:11:34.464Z,4.25
2023-04-18T15:14:35.894Z,3.58
2023-04-18T15:17:37.395Z,3.33
2023-04-18T15:20:38.822Z,3.88
2023-04-18T15:23:40.241Z,3.25
2023-04-18T15:26:42.190Z,3.30
2023-04-18T15:29:43.607Z,3.83
2023-04-18T15:32:45.123Z,3.72
2023-04-18T15:35:49.712Z,3.80
2023-04-18T15:38:51.105Z,3.15
2023-04-18T15:41:53.190Z,3.58
2023-04-18T15:44:54.675Z,3.60
2023-04-18T15:47:56.129Z,3.80
2023-04-18T15:50:57.584Z,3.78
2023-04-18T15:53:58.948Z,3.40
2023-04-18T15:57:00.331Z,3.17
2023-04-18T16:00:01.814Z,4.10
2023-04-18T16:03:04.323Z,3.10
2023-04-18T16:06:05.956Z,4.30
2023-04-18T16:09:07.377Z,4.07
2023-04-18T16:12:08.822Z,4.50
2023-04-18T16:15:10.796Z,4.47
2023-04-18T16:18:12.308Z,5.18
2023-04-18T16:21:16.848Z,5.35
2023-04-18T16:24:18.311Z,4.53
2023-04-18T16:27:19.761Z,4.15
2023-04-18T16:30:21.236Z,3.92
2023-04-18T16:33:22.810Z,4.68
2023-04-18T16:36:24.440Z,4.47
2023-04-18T16:39:25.936Z,4.95
2023-04-18T16:42:27.356Z,5.18
2023-04-18T16:45:28.789Z,4.95
2023-04-18T16:48:30.267Z,4.55
2023-04-18T16:51:31.792Z,4.10
2023-04-18T16:54:33.226Z,4.43
2023-04-18T16:57:34.674Z,4.38
2023-04-18T17:00:38.368Z,4.30
2023-04-18T17:03:40.278Z,4.75
2023-04-18T17:06:41.790Z,4.90
2023-04-18T17:09:43.193Z,5.05
2023-04-18T17:12:44.797Z,4.43
2023-04-18T17:15:46.449Z,4.70
2023-04-18T17:18:47.878Z,4.40
2023-04-18T17:21:49.436Z,4.50
2023-04-18T17:24:50.904Z,4.68
2023-04-18T17:27:52.342Z,4.30
2023-04-18T17:30:53.757Z,4.28
2023-04-18T17:33:55.188Z,4.20
2023-04-18T17:36:56.580Z,4.00
2023-04-18T17:39:58.019Z,4.18
2023-04-18T17:42:59.450Z,4.03
2023-04-18T17:46:00.889Z,2.97
2023-04-18T17:49:02.317Z,3.00
2023-04-18T17:52:03.982Z,3.47
2023-04-18T17:55:05.946Z,2.97
2023-04-18T17:58:07.370Z,2.42
2023-04-18T18:01:18.996Z,3.42
2023-04-18T18:04:20.680Z,3.47
2023-04-18T18:07:22.277Z,3.47
2023-04-18T18:10:23.824Z,3.50
2023-04-18T18:13:25.613Z,3.53
2023-04-18T18:16:27.013Z,4.30
2023-04-18T18:19:28.442Z,3.70
2023-04-18T18:22:29.813Z,4.57
2023-04-18T18:25:31.267Z,4.50
2023-04-18T18:28:33.060Z,4.65
2023-04-18T18:31:35.453Z,4.28
2023-04-18T18:34:36.885Z,5.00
2023-04-18T18:37:38.268Z,4.57
2023-04-18T18:40:39.708Z,4.85
2023-04-18T18:43:41.077Z,5.22
2023-04-18T18:46:43.366Z,4.70
2023-04-18T18:49:44.949Z,5.13
2023-04-18T18:52:46.410Z,5.18
2023-04-18T18:55:47.818Z,5.85
2023-04-18T18:58:49.215Z,5.35
2023-04-18T19:01:50.658Z,4.82
2023-04-18T19:04:52.346Z,6.25
2023-04-18T19:07:53.934Z,5.60
2023-04-18T19:10:55.337Z,6.13
2023-04-18T19:13:56.758Z,6.10
2023-04-18T19:16:58.209Z,6.57
2023-04-18T19:19:59.652Z,6.57
2023-04-18T19:23:01.057Z,6.35
2023-04-18T19:26:02.805Z,6.20
2023-04-18T19:29:06.721Z,7.13
2023-04-18T19:32:08.394Z,6.57
2023-04-18T19:35:09.977Z,6.47
2023-04-18T19:38:11.351Z,6.10
2023-04-18T19:41:12.756Z,7.03
2023-04-18T19:44:14.134Z,6.57
2023-04-18T19:47:15.653Z,6.43
2023-04-18T19:50:17.282Z,6.28
2023-04-18T19:53:18.729Z,6.57
2023-04-18T19:56:20.235Z,6.85
2023-04-18T19:59:21.664Z,6.38
2023-04-18T20:02:23.115Z,7.55
2023-04-18T20:05:24.792Z,6.35
2023-04-18T20:08:26.385Z,6.85
2023-04-18T20:11:27.849Z,7.22
2023-04-18T20:14:29.373Z,7.00
2023-04-18T20:17:30.880Z,6.50
2023-04-18T20:20:32.649Z,7.68
2023-04-18T20:23:37.531Z,7.07
2023-04-18T20:26:38.988Z,8.02
2023-04-18T20:29:40.426Z,7.72
2023-04-18T20:32:42.149Z,7.05
2023-04-18T20:35:44.004Z,6.88
2023-04-18T20:38:45.469Z,7.28
2023-04-18T20:41:50.068Z,6.93
2023-04-18T20:44:51.454Z,7.82
2023-04-18T20:47:52.927Z,9.13
2023-04-18T20:50:54.357Z,7.18
2023-04-18T20:53:55.816Z,8.02
2023-04-18T20:56:57.225Z,7.60
2023-04-18T20:59:58.687Z,8.02
2023-04-18T21:03:00.526Z,7.97
2023-04-18T21:06:02.127Z,8.30
2023-04-18T21:09:03.675Z,8.23
2023-04-18T21:12:05.716Z,8.63
2023-04-18T21:15:07.785Z,8.27
2023-04-18T21:18:09.468Z,8.35
2023-04-18T21:21:11.056Z,7.40
2023-04-18T21:24:12.681Z,8.57
2023-04-18T21:27:14.324Z,8.07
2023-04-18T21:30:15.843Z,7.38
2023-04-18T21:33:17.371Z,7.97
2023-04-18T21:36:18.914Z,7.88
2023-04-18T21:39:20.397Z,7.20
2023-04-18T21:42:21.918Z,6.63
2023-04-18T21:45:23.459Z,7.35
2023-04-18T21:48:25.011Z,7.80
2023-04-18T21:51:26.489Z,7.55
2023-04-18T21:54:27.999Z,7.63
2023-04-18T21:57:29.476Z,7.18
2023-04-18T22:00:30.973Z,6.93
2023-04-18T22:03:33.030Z,7.10
2023-04-18T22:06:34.599Z,6.07
2023-04-18T22:09:36.077Z,6.95
2023-04-18T22:12:37.552Z,6.53
2023-04-18T22:15:39.022Z,6.22
2023-04-18T22:18:40.551Z,6.63
2023-04-18T22:21:42.115Z,6.15
2023-04-18T22:24:45.478Z,6.43
2023-04-18T22:27:48.365Z,6.43
2023-04-18T22:30:50.747Z,6.30
2023-04-18T22:33:52.213Z,6.10
2023-04-18T22:36:53.758Z,6.22
2023-04-18T22:39:55.294Z,5.90
2023-04-18T22:42:56.732Z,6.28
2023-04-18T22:45:58.269Z,6.63
2023-04-18T22:48:59.846Z,6.40
2023-04-18T22:52:01.384Z,6.28
2023-04-18T22:55:03.271Z,6.60
2023-04-18T22:58:04.794Z,6.95
2023-04-18T23:01:06.309Z,6.72
2023-04-18T23:04:08.382Z,6.47
2023-04-18T23:07:09.970Z,6.72
2023-04-18T23:10:11.711Z,6.38
2023-04-18T23:13:13.645Z,7.25
2023-04-18T23:16:15.419Z,6.72
2023-04-18T23:19:16.991Z,7.20
2023-04-18T23:22:18.456Z,6.45
2023-04-18T23:25:20.101Z,7.10
2023-04-18T23:28:21.665Z,8.07
2023-04-18T23:31:23.257Z,7.80
2023-04-18T23:34:24.751Z,6.32
2023-04-18T23:37:26.264Z,6.65
2023-04-18T23:40:27.749Z,6.93
2023-04-18T23:43:29.216Z,6.88
2023-04-18T23:46:30.713Z,6.47
2023-04-18T23:49:32.246Z,7.05
2023-04-18T23:52:33.836Z,6.10
2023-04-18T23:55:35.309Z,6.15
2023-04-18T23:58:36.727Z,5.63
